Time,TemperatureF,DewpointF,PressureIn,WindDirection,WindDirectionDegrees,WindSpeedMPH,WindSpeedGustMPH,Humidity,HourlyPrecipIn,Conditions,Clouds,dailyrainin,SoftwareType,DateUTC
2013-08-24 00:00:00,70.1,66.4,30.02,NNW,347,0.0,1.0,88,0.00,,,0.00,LWC V2.00 B2112,2013-08-24 04:00:00,
2013-08-24 00:01:00,69.9,66.2,30.02,NNW,346,0.0,1.0,88,0.00,,,0.00,LWC V2.00 B2112,2013-08-24 04:01:00,
2013-08-24 00:06:00,69.9,66.2,30.02,NNW,344,0.0,0.0,88,0.00,,,0.00,LWC V2.00 B2112,2013-08-24 04:06:00,
2013-08-24 00:11:00,69.9,66.2,30.02,WNW,293,3.0,3.0,88,0.00,,,0.00,LWC V2.00 B2112,2013-08-24 04:11:00,
2013-08-24 00:16:00,69.9,66.2,30.02,WSW,256,0.0,0.0,88,0.00,,,0.00,LWC V2.00 B2112,2013-08-24 04:16:00,
2013-08-24 00:21:00,69.9,66.2,30.02,WSW,256,0.0,1.0,88,0.00,,,0.00,LWC V2.00 B2112,2013-08-24 04:21:00,
2013-08-24 00:26:00,69.8,65.7,30.03,SW,221,0.0,0.0,87,0.00,,,0.00,LWC V2.00 B2112,2013-08-24 04:26:00,
2013-08-24 00:31:00,69.8,65.7,30.03,SW,221,0.0,0.0,87,0.00,,,0.00,LWC V2.00 B2112,2013-08-24 04:31:00,
2013-08-24 00:36:00,69.8,65.7,30.03,SW,223,0.0,0.0,87,0.00,,,0.00,LWC V2.00 B2112,2013-08-24 04:36:00,
2013-08-24 00:41:00,69.6,65.2,30.04,SE,144,0.0,0.0,86,0.00,,,0.00,LWC V2.00 B2112,2013-08-24 04:41:00,
2013-08-24 00:46:00,69.6,65.2,30.04,West,274,0.0,0.0,86,0.00,,,0.00,LWC V2.00 B2112,2013-08-24 04:46:00,
2013-08-24 00:51:00,69.6,64.9,30.04,West,259,0.0,1.0,85,0.00,,,0.00,LWC V2.00 B2112,2013-08-24 04:51:00,
2013-08-24 00:56:00,69.6,65.6,30.04,West,261,0.0,0.0,87,0.00,,,0.00,LWC V2.00 B2112,2013-08-24 04:56:00,
2013-08-24 01:01:00,69.6,65.6,30.04,West,261,0.0,1.0,87,0.00,,,0.00,LWC V2.00 B2112,2013-08-24 05:01:00,
2013-08-24 01:06:00,69.4,64.7,30.04,West,263,0.0,0.0,85,0.00,,,0.00,LWC V2.00 B2112,2013-08-24 05:06:00,
2013-08-24 01:11:00,69.4,64.3,30.05,West,273,0.0,1.0,84,0.00,,,0.00,LWC V2.00 B2112,2013-08-24 05:11:00,
2013-08-24 01:16:00,69.3,64.2,30.05,West,273,0.0,0.0,84,0.00,,,0.00,LWC V2.00 B2112,2013-08-24 05:16:00,
2013-08-24 01:21:00,69.3,64.2,30.05,WNW,292,1.0,1.0,84,0.00,,,0.00,LWC V2.00 B2112,2013-08-24 05:21:00,
2013-08-24 01:26:00,69.1,63.7,30.05,WNW,287,0.0,1.0,83,0.00,,,0.00,LWC V2.00 B2112,2013-08-24 05:26:00,
2013-08-24 01:31:00,69.1,63.7,30.05,WNW,286,0.0,0.0,83,0.00,,,0.00,LWC V2.00 B2112,2013-08-24 05:31:00,
2013-08-24 01:36:00,68.9,63.9,30.05,West,278,0.0,0.0,84,0.00,,,0.00,LWC V2.00 B2112,2013-08-24 05:36:00,
2013-08-24 01:41:00,68.9,63.9,30.05,WSW,257,0.0,1.0,84,0.00,,,0.00,LWC V2.00 B2112,2013-08-24 05:41:00,
2013-08-24 01:46:00,68.9,63.9,30.05,WSW,257,0.0,0.0,84,0.00,,,0.00,LWC V2.00 B2112,2013-08-24 05:46:00,
2013-08-24 01:51:00,68.9,64.2,30.05,WSW,257,0.0,0.0,85,0.00,,,0.00,LWC V2.00 B2112,2013-08-24 05:51:00,
2013-08-24 01:56:00,68.9,64.2,30.05,West,279,0.0,0.0,85,0.00,,,0.00,LWC V2.00 B2112,2013-08-24 05:56:00,
2013-08-24 02:02:00,68.9,64.9,30.05,West,279,0.0,0.0,87,0.00,,,0.00,LWC V2.00 B2112,2013-08-24 06:02:00,
2013-08-24 02:07:00,68.9,64.9,30.05,West,279,0.0,0.0,87,0.00,,,0.00,LWC V2.00 B2112,2013-08-24 06:07:00,
2013-08-24 02:12:00,68.8,63.8,30.05,NW,306,0.0,1.0,84,0.00,,,0.00,LWC V2.00 B2112,2013-08-24 06:12:00,
2013-08-24 02:17:00,68.6,63.6,30.05,NW,306,0.0,0.0,84,0.00,,,0.00,LWC V2.00 B2112,2013-08-24 06:17:00,
2013-08-24 02:22:00,68.6,63.9,30.05,NW,306,0.0,0.0,85,0.00,,,0.00,LWC V2.00 B2112,2013-08-24 06:22:00,
2013-08-24 02:27:00,68.4,63.4,30.06,NW,306,0.0,0.0,84,0.00,,,0.00,LWC V2.00 B2112,2013-08-24 06:27:00,
2013-08-24 02:32:00,68.4,63.4,30.06,NW,306,0.0,1.0,84,0.00,,,0.00,LWC V2.00 B2112,2013-08-24 06:32:00,
2013-08-24 02:37:00,68.4,64.0,30.06,NW,306,0.0,0.0,86,0.00,,,0.00,LWC V2.00 B2112,2013-08-24 06:37:00,
2013-08-24 02:42:00,68.3,63.6,30.06,NW,306,0.0,0.0,85,0.00,,,0.00,LWC V2.00 B2112,2013-08-24 06:42:00,
2013-08-24 02:47:00,68.3,63.3,30.06,NW,306,0.0,0.0,84,0.00,,,0.00,LWC V2.00 B2112,2013-08-24 06:47:00,
2013-08-24 02:52:00,68.1,63.1,30.06,NW,324,0.0,0.0,84,0.00,,,0.00,LWC V2.00 B2112,2013-08-24 06:52:00,
2013-08-24 02:57:00,68.1,63.4,30.06,NW,324,0.0,0.0,85,0.00,,,0.00,LWC V2.00 B2112,2013-08-24 06:57:00,
2013-08-24 03:02:00,67.9,63.2,30.06,NW,324,0.0,0.0,85,0.00,,,0.00,LWC V2.00 B2112,2013-08-24 07:02:00,
2013-08-24 03:07:00,67.9,63.9,30.06,NW,324,0.0,0.0,87,0.00,,,0.00,LWC V2.00 B2112,2013-08-24 07:07:00,
2013-08-24 03:12:00,67.9,63.5,30.06,NW,324,0.0,0.0,86,0.00,,,0.00,LWC V2.00 B2112,2013-08-24 07:12:00,
2013-08-24 03:17:00,67.9,63.5,30.06,NW,324,0.0,0.0,86,0.00,,,0.00,LWC V2.00 B2112,2013-08-24 07:17:00,
2013-08-24 03:22:00,67.9,63.9,30.06,NW,324,0.0,0.0,87,0.00,,,0.00,LWC V2.00 B2112,2013-08-24 07:22:00,
2013-08-24 03:27:00,67.8,63.5,30.06,NW,324,0.0,0.0,86,0.00,,,0.00,LWC V2.00 B2112,2013-08-24 07:27:00,
2013-08-24 03:32:00,67.8,63.1,30.06,NW,324,0.0,0.0,85,0.00,,,0.00,LWC V2.00 B2112,2013-08-24 07:32:00,
2013-08-24 03:37:00,67.8,63.1,30.06,NW,324,0.0,0.0,85,0.00,,,0.00,LWC V2.00 B2112,2013-08-24 07:37:00,
2013-08-24 03:42:00,67.6,63.3,30.07,NW,324,0.0,0.0,86,0.00,,,0.00,LWC V2.00 B2112,2013-08-24 07:42:00,
2013-08-24 03:47:00,67.6,63.3,30.07,WNW,290,0.0,2.0,86,0.00,,,0.00,LWC V2.00 B2112,2013-08-24 07:47:00,
2013-08-24 03:52:00,67.6,63.3,30.07,WNW,290,0.0,0.0,86,0.00,,,0.00,LWC V2.00 B2112,2013-08-24 07:52:00,
2013-08-24 03:57:00,67.4,63.1,30.07,WNW,290,0.0,0.0,86,0.00,,,0.00,LWC V2.00 B2112,2013-08-24 07:57:00,
2013-08-24 04:02:00,67.4,63.4,30.07,WNW,290,0.0,0.0,87,0.00,,,0.00,LWC V2.00 B2112,2013-08-24 08:02:00,
2013-08-24 04:07:00,67.4,63.4,30.07,NW,319,0.0,0.0,87,0.00,,,0.00,LWC V2.00 B2112,2013-08-24 08:07:00,
2013-08-24 04:12:00,67.3,63.6,30.07,NW,319,0.0,0.0,88,0.00,,,0.00,LWC V2.00 B2112,2013-08-24 08:12:00,
2013-08-24 04:17:00,67.3,63.3,30.07,NW,319,0.0,0.0,87,0.00,,,0.00,LWC V2.00 B2112,2013-08-24 08:17:00,
2013-08-24 04:22:00,67.3,63.6,30.07,NW,319,0.0,0.0,88,0.00,,,0.00,LWC V2.00 B2112,2013-08-24 08:22:00,
2013-08-24 04:27:00,67.1,63.4,30.07,NW,319,0.0,1.0,88,0.00,,,0.00,LWC V2.00 B2112,2013-08-24 08:27:00,
2013-08-24 04:32:00,67.1,63.4,30.07,NW,319,0.0,0.0,88,0.00,,,0.00,LWC V2.00 B2112,2013-08-24 08:32:00,
2013-08-24 04:37:00,66.9,63.2,30.07,NW,319,0.0,0.0,88,0.00,,,0.00,LWC V2.00 B2112,2013-08-24 08:37:00,
2013-08-24 04:42:00,66.8,63.1,30.08,NW,319,0.0,0.0,88,0.00,,,0.00,LWC V2.00 B2112,2013-08-24 08:42:00,
2013-08-24 04:47:00,66.8,63.1,30.08,NW,319,0.0,0.0,88,0.00,,,0.00,LWC V2.00 B2112,2013-08-24 08:47:00,
2013-08-24 04:52:00,66.6,63.2,30.08,NW,319,0.0,0.0,89,0.00,,,0.00,LWC V2.00 B2112,2013-08-24 08:52:00,
2013-08-24 04:57:00,66.4,63.4,30.08,NW,319,0.0,0.0,90,0.00,,,0.00,LWC V2.00 B2112,2013-08-24 08:57:00,
2013-08-24 05:02:00,66.4,63.4,30.08,NW,319,0.0,0.0,90,0.00,,,0.00,LWC V2.00 B2112,2013-08-24 09:02:00,
2013-08-24 05:07:00,66.3,63.3,30.08,NW,319,0.0,0.0,90,0.00,,,0.00,LWC V2.00 B2112,2013-08-24 09:07:00,
2013-08-24 05:12:00,66.3,63.3,30.08,NW,319,0.0,0.0,90,0.00,,,0.00,LWC V2.00 B2112,2013-08-24 09:12:00,
2013-08-24 05:17:00,66.1,63.1,30.08,NW,319,0.0,0.0,90,0.00,,,0.00,LWC V2.00 B2112,2013-08-24 09:17:00,
2013-08-24 05:22:00,66.0,63.3,30.08,NW,319,0.0,0.0,91,0.00,,,0.00,LWC V2.00 B2112,2013-08-24 09:22:00,
2013-08-24 05:27:00,66.0,63.3,30.09,NW,319,0.0,0.0,91,0.00,,,0.00,LWC V2.00 B2112,2013-08-24 09:27:00,
2013-08-24 05:32:00,65.8,63.4,30.09,NW,319,0.0,0.0,92,0.00,,,0.00,LWC V2.00 B2112,2013-08-24 09:32:00,
2013-08-24 05:37:00,65.6,63.2,30.09,NW,319,0.0,0.0,92,0.00,,,0.00,LWC V2.00 B2112,2013-08-24 09:37:00,
2013-08-24 05:42:00,65.6,63.2,30.10,NW,319,0.0,0.0,92,0.00,,,0.00,LWC V2.00 B2112,2013-08-24 09:42:00,
2013-08-24 05:47:00,65.6,63.2,30.10,NW,319,0.0,0.0,92,0.00,,,0.00,LWC V2.00 B2112,2013-08-24 09:47:00,
2013-08-24 05:52:00,65.5,63.1,30.10,NW,319,0.0,0.0,92,0.00,,,0.00,LWC V2.00 B2112,2013-08-24 09:52:00,
2013-08-24 05:57:00,65.5,63.1,30.10,NW,319,0.0,0.0,92,0.00,,,0.00,LWC V2.00 B2112,2013-08-24 09:57:00,
2013-08-24 06:02:00,65.5,63.4,30.10,NW,319,0.0,0.0,93,0.00,,,0.00,LWC V2.00 B2112,2013-08-24 10:02:00,
2013-08-24 06:07:00,65.3,63.2,30.10,NW,319,0.0,0.0,93,0.00,,,0.00,LWC V2.00 B2112,2013-08-24 10:07:00,
2013-08-24 06:12:00,65.3,63.2,30.11,NW,319,0.0,0.0,93,0.00,,,0.00,LWC V2.00 B2112,2013-08-24 10:12:00,
2013-08-24 06:17:00,65.2,63.1,30.11,NW,319,0.0,0.0,93,0.00,,,0.00,LWC V2.00 B2112,2013-08-24 10:17:00,
2013-08-24 06:22:00,65.2,63.1,30.11,NW,319,0.0,0.0,93,0.00,,,0.00,LWC V2.00 B2112,2013-08-24 10:22:00,
2013-08-24 06:27:00,65.0,62.9,30.11,NW,319,0.0,0.0,93,0.00,,,0.00,LWC V2.00 B2112,2013-08-24 10:27:00,
2013-08-24 06:32:00,65.0,62.9,30.11,NW,319,0.0,0.0,93,0.00,,,0.00,LWC V2.00 B2112,2013-08-24 10:32:00,
2013-08-24 06:37:00,65.0,62.9,30.11,NW,319,0.0,0.0,93,0.00,,,0.00,LWC V2.00 B2112,2013-08-24 10:37:00,
2013-08-24 06:42:00,64.8,62.7,30.12,NW,319,0.0,0.0,93,0.00,,,0.00,LWC V2.00 B2112,2013-08-24 10:42:00,
2013-08-24 06:47:00,64.8,62.7,30.12,NW,319,0.0,0.0,93,0.00,,,0.00,LWC V2.00 B2112,2013-08-24 10:47:00,
2013-08-24 06:52:00,64.7,62.6,30.12,NW,319,0.0,0.0,93,0.00,,,0.00,LWC V2.00 B2112,2013-08-24 10:52:00,
2013-08-24 06:57:00,64.7,62.9,30.13,NW,319,0.0,0.0,94,0.00,,,0.00,LWC V2.00 B2112,2013-08-24 10:57:00,
2013-08-24 07:02:00,64.7,62.9,30.13,NW,319,0.0,0.0,94,0.00,,,0.00,LWC V2.00 B2112,2013-08-24 11:02:00,
2013-08-24 07:07:00,64.5,62.7,30.13,NW,319,0.0,0.0,94,0.00,,,0.00,LWC V2.00 B2112,2013-08-24 11:07:00,
2013-08-24 07:12:00,64.5,62.7,30.14,NW,319,0.0,0.0,94,0.00,,,0.00,LWC V2.00 B2112,2013-08-24 11:12:00,
2013-08-24 07:17:00,64.5,62.7,30.14,NW,319,0.0,0.0,94,0.00,,,0.00,LWC V2.00 B2112,2013-08-24 11:17:00,
2013-08-24 07:22:00,64.5,62.7,30.14,NW,319,0.0,0.0,94,0.00,,,0.00,LWC V2.00 B2112,2013-08-24 11:22:00,
2013-08-24 07:27:00,64.5,63.0,30.14,NW,319,0.0,0.0,95,0.00,,,0.00,LWC V2.00 B2112,2013-08-24 11:27:00,
2013-08-24 07:32:00,64.5,63.0,30.14,NW,319,0.0,1.0,95,0.00,,,0.00,LWC V2.00 B2112,2013-08-24 11:32:00,
2013-08-24 07:37:00,64.5,63.0,30.14,NW,319,0.0,0.0,95,0.00,,,0.00,LWC V2.00 B2112,2013-08-24 11:37:00,
2013-08-24 07:42:00,64.7,63.2,30.14,NW,319,0.0,0.0,95,0.00,,,0.00,LWC V2.00 B2112,2013-08-24 11:42:00,
2013-08-24 07:47:00,64.7,63.2,30.14,NW,319,0.0,0.0,95,0.00,,,0.00,LWC V2.00 B2112,2013-08-24 11:47:00,
2013-08-24 07:52:00,64.8,63.3,30.14,NW,319,0.0,0.0,95,0.00,,,0.00,LWC V2.00 B2112,2013-08-24 11:52:00,
2013-08-24 07:57:00,64.8,62.7,30.14,WNW,291,0.0,0.0,93,0.00,,,0.00,LWC V2.00 B2112,2013-08-24 11:57:00,
2013-08-24 08:02:00,64.8,62.7,30.14,WNW,291,0.0,0.0,93,0.00,,,0.00,LWC V2.00 B2112,2013-08-24 12:02:00,
2013-08-24 08:07:00,65.0,62.6,30.14,WNW,286,0.0,0.0,92,0.00,,,0.00,LWC V2.00 B2112,2013-08-24 12:07:00,
2013-08-24 08:12:00,65.0,62.6,30.14,WNW,286,0.0,0.0,92,0.00,,,0.00,LWC V2.00 B2112,2013-08-24 12:12:00,
2013-08-24 08:17:00,65.3,62.9,30.14,WNW,283,0.0,1.0,92,0.00,,,0.00,LWC V2.00 B2112,2013-08-24 12:17:00,
2013-08-24 08:22:00,65.5,62.8,30.14,SW,221,0.0,0.0,91,0.00,,,0.00,LWC V2.00 B2112,2013-08-24 12:22:00,
2013-08-24 08:27:00,65.6,62.9,30.14,SW,224,0.0,0.0,91,0.00,,,0.00,LWC V2.00 B2112,2013-08-24 12:27:00,
2013-08-24 08:32:00,65.8,62.5,30.14,West,273,0.0,0.0,89,0.00,,,0.00,LWC V2.00 B2112,2013-08-24 12:32:00,
2013-08-24 08:37:00,66.0,62.7,30.14,West,273,0.0,1.0,89,0.00,,,0.00,LWC V2.00 B2112,2013-08-24 12:37:00,
2013-08-24 08:42:00,66.1,62.4,30.15,North,355,0.0,0.0,88,0.00,,,0.00,LWC V2.00 B2112,2013-08-24 12:42:00,
2013-08-24 08:47:00,66.4,62.7,30.15,North,355,0.0,0.0,88,0.00,,,0.00,LWC V2.00 B2112,2013-08-24 12:47:00,
2013-08-24 08:52:00,66.6,63.2,30.15,North,0,0.0,1.0,89,0.00,,,0.00,LWC V2.00 B2112,2013-08-24 12:52:00,
2013-08-24 08:57:00,66.8,62.8,30.16,WNW,302,0.0,2.0,87,0.00,,,0.00,LWC V2.00 B2112,2013-08-24 12:57:00,
2013-08-24 09:02:00,66.9,62.2,30.16,WNW,300,0.0,1.0,85,0.00,,,0.00,LWC V2.00 B2112,2013-08-24 13:02:00,
2013-08-24 09:07:00,67.1,62.4,30.16,NW,322,0.0,1.0,85,0.00,,,0.00,LWC V2.00 B2112,2013-08-24 13:07:00,
2013-08-24 09:12:00,67.4,62.0,30.16,West,273,0.0,2.0,83,0.00,,,0.00,LWC V2.00 B2112,2013-08-24 13:12:00,
2013-08-24 09:17:00,67.6,62.6,30.16,West,273,0.0,0.0,84,0.00,,,0.00,LWC V2.00 B2112,2013-08-24 13:17:00,
2013-08-24 09:22:00,67.9,63.2,30.16,West,273,0.0,0.0,85,0.00,,,0.00,LWC V2.00 B2112,2013-08-24 13:22:00,
2013-08-24 09:27:00,68.1,62.7,30.16,West,273,0.0,0.0,83,0.00,,,0.00,LWC V2.00 B2112,2013-08-24 13:27:00,
2013-08-24 09:32:00,68.3,62.2,30.16,WNW,290,0.0,1.0,81,0.00,,,0.00,LWC V2.00 B2112,2013-08-24 13:32:00,
2013-08-24 09:37:00,68.4,62.0,30.16,WSW,246,0.0,0.0,80,0.00,,,0.00,LWC V2.00 B2112,2013-08-24 13:37:00,
2013-08-24 09:42:00,68.8,63.1,30.16,WSW,247,0.0,0.0,82,0.00,,,0.00,LWC V2.00 B2112,2013-08-24 13:42:00,
2013-08-24 09:47:00,69.1,63.0,30.16,WSW,247,0.0,0.0,81,0.00,,,0.00,LWC V2.00 B2112,2013-08-24 13:47:00,
2013-08-24 09:52:00,69.1,62.3,30.16,WSW,247,0.0,0.0,79,0.00,,,0.00,LWC V2.00 B2112,2013-08-24 13:52:00,
2013-08-24 09:57:00,69.4,63.7,30.17,WSW,247,0.0,0.0,82,0.00,,,0.00,LWC V2.00 B2112,2013-08-24 13:57:00,
2013-08-24 10:02:00,69.8,63.3,30.17,WSW,247,0.0,0.0,80,0.00,,,0.00,LWC V2.00 B2112,2013-08-24 14:02:00,
2013-08-24 10:07:00,70.1,63.6,30.17,WSW,247,0.0,0.0,80,0.00,,,0.00,LWC V2.00 B2112,2013-08-24 14:07:00,
2013-08-24 10:12:00,70.3,63.5,30.17,WSW,247,0.0,0.0,79,0.00,,,0.00,LWC V2.00 B2112,2013-08-24 14:12:00,
2013-08-24 10:17:00,70.6,63.0,30.17,WNW,291,0.0,1.0,77,0.00,,,0.00,LWC V2.00 B2112,2013-08-24 14:17:00,
2013-08-24 10:22:00,71.3,63.0,30.17,NNW,337,0.0,1.0,75,0.00,,,0.00,LWC V2.00 B2112,2013-08-24 14:22:00,
2013-08-24 10:27:00,72.0,62.9,30.17,NNW,327,0.0,1.0,73,0.00,,,0.00,LWC V2.00 B2112,2013-08-24 14:27:00,
2013-08-24 10:32:00,72.5,62.9,30.17,NNW,327,0.0,0.0,72,0.00,,,0.00,LWC V2.00 B2112,2013-08-24 14:32:00,
2013-08-24 10:37:00,73.0,63.4,30.17,WNW,300,0.0,1.0,72,0.00,,,0.00,LWC V2.00 B2112,2013-08-24 14:37:00,
2013-08-24 10:42:00,73.5,65.5,30.17,WNW,300,0.0,0.0,76,0.00,,,0.00,LWC V2.00 B2112,2013-08-24 14:42:00,
2013-08-24 10:47:00,73.9,65.8,30.17,WNW,300,0.0,0.0,76,0.00,,,0.00,LWC V2.00 B2112,2013-08-24 14:47:00,
2013-08-24 10:52:00,73.9,65.8,30.17,WNW,300,0.0,2.0,76,0.00,,,0.00,LWC V2.00 B2112,2013-08-24 14:52:00,
2013-08-24 10:57:00,74.0,62.8,30.18,SSE,148,0.0,1.0,68,0.00,,,0.00,LWC V2.00 B2112,2013-08-24 14:57:00,
2013-08-24 11:02:00,74.2,63.4,30.18,SW,227,0.0,1.0,69,0.00,,,0.00,LWC V2.00 B2112,2013-08-24 15:02:00,
2013-08-24 11:07:00,74.4,62.7,30.18,WSW,249,0.0,1.0,67,0.00,,,0.00,LWC V2.00 B2112,2013-08-24 15:07:00,
2013-08-24 11:12:00,74.6,61.6,30.18,SW,232,0.0,1.0,64,0.00,,,0.00,LWC V2.00 B2112,2013-08-24 15:12:00,
2013-08-24 11:17:00,74.7,62.6,30.18,West,275,0.0,0.0,66,0.00,,,0.00,LWC V2.00 B2112,2013-08-24 15:17:00,
2013-08-24 11:22:00,74.9,65.6,30.18,West,275,0.0,0.0,73,0.00,,,0.00,LWC V2.00 B2112,2013-08-24 15:22:00,
2013-08-24 11:27:00,74.9,65.2,30.18,West,262,0.0,0.0,72,0.00,,,0.00,LWC V2.00 B2112,2013-08-24 15:27:00,
2013-08-24 11:32:00,74.9,63.6,30.18,West,269,1.0,1.0,68,0.00,,,0.00,LWC V2.00 B2112,2013-08-24 15:32:00,
2013-08-24 11:37:00,75.3,65.6,30.18,West,262,0.0,0.0,72,0.00,,,0.00,LWC V2.00 B2112,2013-08-24 15:37:00,
2013-08-24 11:42:00,75.3,65.6,30.18,West,262,0.0,0.0,72,0.00,,,0.00,LWC V2.00 B2112,2013-08-24 15:42:00,
2013-08-24 11:47:00,75.3,64.0,30.18,West,279,0.0,3.0,68,0.00,,,0.00,LWC V2.00 B2112,2013-08-24 15:47:00,
2013-08-24 11:52:00,75.6,61.6,30.18,NNW,341,0.0,0.0,62,0.00,,,0.00,LWC V2.00 B2112,2013-08-24 15:52:00,
2013-08-24 11:58:00,75.8,61.8,30.18,NW,324,0.0,1.0,62,0.00,,,0.00,LWC V2.00 B2112,2013-08-24 15:58:00,
2013-08-24 12:03:00,76.3,63.6,30.18,NW,324,0.0,0.0,65,0.00,,,0.00,LWC V2.00 B2112,2013-08-24 16:03:00,
2013-08-24 12:08:00,76.7,61.3,30.18,NNW,330,0.0,0.0,59,0.00,,,0.00,LWC V2.00 B2112,2013-08-24 16:08:00,
2013-08-24 12:13:00,77.0,61.6,30.18,NW,321,0.0,0.0,59,0.00,,,0.00,LWC V2.00 B2112,2013-08-24 16:13:00,
2013-08-24 12:18:00,77.2,64.9,30.18,NW,320,0.0,2.0,66,0.00,,,0.00,LWC V2.00 B2112,2013-08-24 16:18:00,
2013-08-24 12:23:00,77.4,65.6,30.18,NW,320,0.0,0.0,67,0.00,,,0.00,LWC V2.00 B2112,2013-08-24 16:23:00,
2013-08-24 12:28:00,77.4,61.0,30.18,NW,320,0.0,0.0,57,0.00,,,0.00,LWC V2.00 B2112,2013-08-24 16:28:00,
2013-08-24 12:33:00,77.9,61.9,30.18,NW,320,0.0,1.0,58,0.00,,,0.00,LWC V2.00 B2112,2013-08-24 16:33:00,
2013-08-24 12:38:00,77.9,65.2,30.18,West,268,0.0,4.0,65,0.00,,,0.00,LWC V2.00 B2112,2013-08-24 16:38:00,
2013-08-24 12:43:00,78.1,62.6,30.18,West,270,0.0,3.0,59,0.00,,,0.00,LWC V2.00 B2112,2013-08-24 16:43:00,
2013-08-24 12:48:00,78.5,63.4,30.18,West,270,0.0,0.0,60,0.00,,,0.00,LWC V2.00 B2112,2013-08-24 16:48:00,
2013-08-24 12:53:00,78.5,63.4,30.18,West,270,0.0,0.0,60,0.00,,,0.00,LWC V2.00 B2112,2013-08-24 16:53:00,
2013-08-24 12:58:00,78.8,60.7,30.18,West,270,0.0,1.0,54,0.00,,,0.00,LWC V2.00 B2112,2013-08-24 16:58:00,
2013-08-24 13:03:00,79.0,61.9,30.18,West,263,0.0,0.0,56,0.00,,,0.00,LWC V2.00 B2112,2013-08-24 17:03:00,
2013-08-24 13:08:00,78.8,60.2,30.18,West,261,0.0,0.0,53,0.00,,,0.00,LWC V2.00 B2112,2013-08-24 17:08:00,
2013-08-24 13:13:00,79.0,62.9,30.18,WNW,294,0.0,0.0,58,0.00,,,0.00,LWC V2.00 B2112,2013-08-24 17:13:00,
2013-08-24 13:18:00,78.8,61.2,30.18,WNW,294,0.0,1.0,55,0.00,,,0.00,LWC V2.00 B2112,2013-08-24 17:18:00,
2013-08-24 13:23:00,78.6,64.9,30.18,WNW,294,0.0,0.0,63,0.00,,,0.00,LWC V2.00 B2112,2013-08-24 17:23:00,
2013-08-24 13:28:00,78.5,59.9,30.18,WNW,301,3.0,3.0,53,0.00,,,0.00,LWC V2.00 B2112,2013-08-24 17:28:00,
2013-08-24 13:33:00,78.8,60.7,30.18,WNW,284,0.0,1.0,54,0.00,,,0.00,LWC V2.00 B2112,2013-08-24 17:33:00,
2013-08-24 13:38:00,79.0,61.9,30.18,West,274,0.0,4.0,56,0.00,,,0.00,LWC V2.00 B2112,2013-08-24 17:38:00,
2013-08-24 13:43:00,79.2,61.6,30.17,West,274,0.0,1.0,55,0.00,,,0.00,LWC V2.00 B2112,2013-08-24 17:43:00,
2013-08-24 13:48:00,79.2,60.0,30.17,WNW,299,0.0,3.0,52,0.00,,,0.00,LWC V2.00 B2112,2013-08-24 17:48:00,
2013-08-24 13:53:00,79.2,64.6,30.17,WNW,299,0.0,0.0,61,0.00,,,0.00,LWC V2.00 B2112,2013-08-24 17:53:00,
2013-08-24 13:58:00,79.2,59.5,30.17,WNW,299,0.0,3.0,51,0.00,,,0.00,LWC V2.00 B2112,2013-08-24 17:58:00,
2013-08-24 14:03:00,79.4,59.1,30.17,WNW,294,0.0,0.0,50,0.00,,,0.00,LWC V2.00 B2112,2013-08-24 18:03:00,
2013-08-24 14:08:00,79.4,63.3,30.17,WNW,294,0.0,3.0,58,0.00,,,0.00,LWC V2.00 B2112,2013-08-24 18:08:00,
2013-08-24 14:13:00,79.2,61.6,30.17,WNW,294,0.0,1.0,55,0.00,,,0.00,LWC V2.00 B2112,2013-08-24 18:13:00,
2013-08-24 14:18:00,79.6,63.5,30.17,WNW,290,1.0,1.0,58,0.00,,,0.00,LWC V2.00 B2112,2013-08-24 18:18:00,
2013-08-24 14:23:00,79.6,62.0,30.17,WNW,290,0.0,0.0,55,0.00,,,0.00,LWC V2.00 B2112,2013-08-24 18:23:00,
2013-08-24 14:28:00,79.4,62.3,30.17,WNW,290,0.0,0.0,56,0.00,,,0.00,LWC V2.00 B2112,2013-08-24 18:28:00,
2013-08-24 14:33:00,79.4,66.1,30.17,WNW,290,0.0,1.0,64,0.00,,,0.00,LWC V2.00 B2112,2013-08-24 18:33:00,
2013-08-24 14:38:00,79.0,63.9,30.17,WNW,290,0.0,1.0,60,0.00,,,0.00,LWC V2.00 B2112,2013-08-24 18:38:00,
2013-08-24 14:43:00,78.6,63.5,30.17,WNW,290,0.0,0.0,60,0.00,,,0.00,LWC V2.00 B2112,2013-08-24 18:43:00,
2013-08-24 14:48:00,78.6,60.5,30.17,West,271,2.0,3.0,54,0.00,,,0.00,LWC V2.00 B2112,2013-08-24 18:48:00,
2013-08-24 14:53:00,78.8,62.3,30.17,West,271,1.0,1.0,57,0.00,,,0.00,LWC V2.00 B2112,2013-08-24 18:53:00,
2013-08-24 14:58:00,78.8,61.2,30.17,SW,221,0.0,0.0,55,0.00,,,0.00,LWC V2.00 B2112,2013-08-24 18:58:00,
2013-08-24 15:03:00,78.6,63.5,30.17,SW,221,0.0,1.0,60,0.00,,,0.00,LWC V2.00 B2112,2013-08-24 19:03:00,
2013-08-24 15:08:00,78.8,60.7,30.17,SW,233,0.0,0.0,54,0.00,,,0.00,LWC V2.00 B2112,2013-08-24 19:08:00,
2013-08-24 15:13:00,79.2,61.1,30.17,SW,233,1.0,1.0,54,0.00,,,0.00,LWC V2.00 B2112,2013-08-24 19:13:00,
2013-08-24 15:18:00,79.4,60.2,30.17,WSW,258,0.0,1.0,52,0.00,,,0.00,LWC V2.00 B2112,2013-08-24 19:18:00,
2013-08-24 15:23:00,79.9,60.1,30.17,WSW,258,0.0,2.0,51,0.00,,,0.00,LWC V2.00 B2112,2013-08-24 19:23:00,
2013-08-24 15:28:00,79.6,60.9,30.16,WSW,258,0.0,1.0,53,0.00,,,0.00,LWC V2.00 B2112,2013-08-24 19:28:00,
2013-08-24 15:33:00,79.6,60.4,30.16,WSW,241,0.0,2.0,52,0.00,,,0.00,LWC V2.00 B2112,2013-08-24 19:33:00,
2013-08-24 15:38:00,79.6,61.5,30.16,WSW,241,0.0,0.0,54,0.00,,,0.00,LWC V2.00 B2112,2013-08-24 19:38:00,
2013-08-24 15:43:00,79.6,63.5,30.16,WSW,241,0.0,0.0,58,0.00,,,0.00,LWC V2.00 B2112,2013-08-24 19:43:00,
2013-08-24 15:48:00,78.8,65.1,30.16,WSW,241,0.0,0.0,63,0.00,,,0.00,LWC V2.00 B2112,2013-08-24 19:48:00,
2013-08-24 15:53:00,78.8,60.7,30.16,West,264,0.0,1.0,54,0.00,,,0.00,LWC V2.00 B2112,2013-08-24 19:53:00,
2013-08-24 15:58:00,79.2,64.1,30.17,West,264,0.0,0.0,60,0.00,,,0.00,LWC V2.00 B2112,2013-08-24 19:58:00,
2013-08-24 16:03:00,79.0,59.3,30.17,West,270,0.0,1.0,51,0.00,,,0.00,LWC V2.00 B2112,2013-08-24 20:03:00,
2013-08-24 16:08:00,78.8,60.7,30.17,West,270,0.0,0.0,54,0.00,,,0.00,LWC V2.00 B2112,2013-08-24 20:08:00,
2013-08-24 16:13:00,78.6,62.6,30.16,West,270,0.0,0.0,58,0.00,,,0.00,LWC V2.00 B2112,2013-08-24 20:13:00,
2013-08-24 16:18:00,78.5,59.9,30.16,West,270,0.0,2.0,53,0.00,,,0.00,LWC V2.00 B2112,2013-08-24 20:18:00,
2013-08-24 16:23:00,78.5,61.0,30.16,West,270,0.0,0.0,55,0.00,,,0.00,LWC V2.00 B2112,2013-08-24 20:23:00,
2013-08-24 16:28:00,78.3,60.3,30.17,West,270,0.0,0.0,54,0.00,,,0.00,LWC V2.00 B2112,2013-08-24 20:28:00,
2013-08-24 16:33:00,78.1,59.6,30.17,WNW,292,0.0,2.0,53,0.00,,,0.00,LWC V2.00 B2112,2013-08-24 20:33:00,
2013-08-24 16:38:00,78.5,62.0,30.17,WNW,292,0.0,0.0,57,0.00,,,0.00,LWC V2.00 B2112,2013-08-24 20:38:00,
2013-08-24 16:43:00,78.3,63.2,30.16,WNW,292,0.0,0.0,60,0.00,,,0.00,LWC V2.00 B2112,2013-08-24 20:43:00,
2013-08-24 16:48:00,77.9,65.2,30.16,WNW,292,0.0,0.0,65,0.00,,,0.00,LWC V2.00 B2112,2013-08-24 20:48:00,
2013-08-24 16:53:00,77.6,64.4,30.16,WNW,292,0.0,1.0,64,0.00,,,0.00,LWC V2.00 B2112,2013-08-24 20:53:00,
2013-08-24 16:58:00,77.7,61.2,30.16,West,271,0.0,0.0,57,0.00,,,0.00,LWC V2.00 B2112,2013-08-24 20:58:00,
2013-08-24 17:03:00,77.9,60.9,30.16,West,271,0.0,0.0,56,0.00,,,0.00,LWC V2.00 B2112,2013-08-24 21:03:00,
2013-08-24 17:08:00,77.9,60.4,30.16,West,271,0.0,0.0,55,0.00,,,0.00,LWC V2.00 B2112,2013-08-24 21:08:00,
2013-08-24 17:13:00,78.1,63.5,30.17,West,271,0.0,0.0,61,0.00,,,0.00,LWC V2.00 B2112,2013-08-24 21:13:00,
2013-08-24 17:18:00,77.9,62.9,30.17,West,271,0.0,0.0,60,0.00,,,0.00,LWC V2.00 B2112,2013-08-24 21:18:00,
2013-08-24 17:23:00,77.7,62.7,30.17,West,271,0.0,0.0,60,0.00,,,0.00,LWC V2.00 B2112,2013-08-24 21:23:00,
2013-08-24 17:28:00,77.6,63.5,30.17,West,271,0.0,0.0,62,0.00,,,0.00,LWC V2.00 B2112,2013-08-24 21:28:00,
2013-08-24 17:33:00,77.4,64.2,30.17,West,271,0.0,0.0,64,0.00,,,0.00,LWC V2.00 B2112,2013-08-24 21:33:00,
2013-08-24 17:38:00,77.0,63.9,30.17,West,271,0.0,1.0,64,0.00,,,0.00,LWC V2.00 B2112,2013-08-24 21:38:00,
2013-08-24 17:43:00,76.8,65.0,30.17,West,271,0.0,0.0,67,0.00,,,0.00,LWC V2.00 B2112,2013-08-24 21:43:00,
2013-08-24 17:48:00,76.5,64.3,30.17,West,271,0.0,0.0,66,0.00,,,0.00,LWC V2.00 B2112,2013-08-24 21:48:00,
2013-08-24 17:53:00,76.3,64.1,30.17,West,271,0.0,0.0,66,0.00,,,0.00,LWC V2.00 B2112,2013-08-24 21:53:00,
2013-08-24 17:58:00,76.3,63.6,30.17,West,271,0.0,0.0,65,0.00,,,0.00,LWC V2.00 B2112,2013-08-24 21:58:00,
2013-08-24 18:03:00,76.3,64.5,30.17,West,271,0.0,0.0,67,0.00,,,0.00,LWC V2.00 B2112,2013-08-24 22:03:00,
2013-08-24 18:08:00,76.1,64.3,30.17,West,271,0.0,0.0,67,0.00,,,0.00,LWC V2.00 B2112,2013-08-24 22:08:00,
2013-08-24 18:13:00,76.0,64.2,30.17,West,271,0.0,0.0,67,0.00,,,0.00,LWC V2.00 B2112,2013-08-24 22:13:00,
2013-08-24 18:18:00,75.8,64.0,30.17,West,271,0.0,0.0,67,0.00,,,0.00,LWC V2.00 B2112,2013-08-24 22:18:00,
2013-08-24 18:23:00,75.6,65.5,30.17,West,271,0.0,0.0,71,0.00,,,0.00,LWC V2.00 B2112,2013-08-24 22:23:00,
2013-08-24 18:28:00,75.3,64.4,30.17,West,271,0.0,0.0,69,0.00,,,0.00,LWC V2.00 B2112,2013-08-24 22:28:00,
2013-08-24 18:33:00,75.1,64.6,30.17,West,271,0.0,1.0,70,0.00,,,0.00,LWC V2.00 B2112,2013-08-24 22:33:00,
2013-08-24 18:38:00,74.9,66.0,30.17,West,271,0.0,0.0,74,0.00,,,0.00,LWC V2.00 B2112,2013-08-24 22:38:00,
2013-08-24 18:43:00,74.7,65.8,30.17,West,271,0.0,0.0,74,0.00,,,0.00,LWC V2.00 B2112,2013-08-24 22:43:00,
2013-08-24 18:48:00,74.6,65.7,30.17,West,271,0.0,0.0,74,0.00,,,0.00,LWC V2.00 B2112,2013-08-24 22:48:00,
2013-08-24 18:53:00,74.2,64.6,30.17,West,271,0.0,0.0,72,0.00,,,0.00,LWC V2.00 B2112,2013-08-24 22:53:00,
2013-08-24 18:58:00,74.0,64.4,30.17,West,271,0.0,0.0,72,0.00,,,0.00,LWC V2.00 B2112,2013-08-24 22:58:00,
2013-08-24 19:03:00,73.9,65.1,30.17,West,271,0.0,0.0,74,0.00,,,0.00,LWC V2.00 B2112,2013-08-24 23:03:00,
2013-08-24 19:08:00,73.5,65.1,30.17,West,271,0.0,0.0,75,0.00,,,0.00,LWC V2.00 B2112,2013-08-24 23:08:00,
2013-08-24 19:13:00,73.3,64.9,30.17,West,271,0.0,0.0,75,0.00,,,0.00,LWC V2.00 B2112,2013-08-24 23:13:00,
2013-08-24 19:18:00,73.2,64.8,30.17,West,271,0.0,0.0,75,0.00,,,0.00,LWC V2.00 B2112,2013-08-24 23:18:00,
2013-08-24 19:23:00,72.8,64.4,30.17,West,271,0.0,0.0,75,0.00,,,0.00,LWC V2.00 B2112,2013-08-24 23:23:00,
2013-08-24 19:28:00,72.7,64.3,30.18,West,271,0.0,0.0,75,0.00,,,0.00,LWC V2.00 B2112,2013-08-24 23:28:00,
2013-08-24 19:33:00,72.5,64.5,30.18,West,271,0.0,0.0,76,0.00,,,0.00,LWC V2.00 B2112,2013-08-24 23:33:00,
2013-08-24 19:38:00,72.1,64.1,30.18,West,271,0.0,0.0,76,0.00,,,0.00,LWC V2.00 B2112,2013-08-24 23:38:00,
2013-08-24 19:43:00,71.8,63.8,30.18,West,271,0.0,0.0,76,0.00,,,0.00,LWC V2.00 B2112,2013-08-24 23:43:00,
2013-08-24 19:48:00,71.6,64.0,30.18,West,271,0.0,0.0,77,0.00,,,0.00,LWC V2.00 B2112,2013-08-24 23:48:00,
2013-08-24 19:53:00,71.5,64.3,30.18,West,271,0.0,0.0,78,0.00,,,0.00,LWC V2.00 B2112,2013-08-24 23:53:00,
2013-08-24 19:58:00,71.1,64.2,30.18,West,271,0.0,0.0,79,0.00,,,0.00,LWC V2.00 B2112,2013-08-24 23:58:00,
2013-08-24 20:03:00,70.8,64.3,30.18,West,271,0.0,0.0,80,0.00,,,0.00,LWC V2.00 B2112,2013-08-25 00:03:00,
2013-08-24 20:08:00,70.6,64.1,30.18,West,271,0.0,0.0,80,0.00,,,0.00,LWC V2.00 B2112,2013-08-25 00:08:00,
2013-08-24 20:13:00,70.3,64.2,30.19,West,271,0.0,0.0,81,0.00,,,0.00,LWC V2.00 B2112,2013-08-25 00:13:00,
2013-08-24 20:18:00,70.1,64.3,30.19,West,271,0.0,0.0,82,0.00,,,0.00,LWC V2.00 B2112,2013-08-25 00:18:00,
2013-08-24 20:23:00,69.8,64.0,30.19,West,271,0.0,0.0,82,0.00,,,0.00,LWC V2.00 B2112,2013-08-25 00:23:00,
2013-08-24 20:28:00,69.6,64.2,30.19,West,271,0.0,0.0,83,0.00,,,0.00,LWC V2.00 B2112,2013-08-25 00:28:00,
2013-08-24 20:33:00,69.1,64.1,30.19,West,271,0.0,0.0,84,0.00,,,0.00,LWC V2.00 B2112,2013-08-25 00:33:00,
2013-08-24 20:38:00,68.8,63.8,30.19,West,271,0.0,0.0,84,0.00,,,0.00,LWC V2.00 B2112,2013-08-25 00:38:00,
2013-08-24 20:43:00,68.4,63.7,30.20,West,271,0.0,0.0,85,0.00,,,0.00,LWC V2.00 B2112,2013-08-25 00:43:00,
2013-08-24 20:48:00,68.3,63.9,30.20,West,271,0.0,0.0,86,0.00,,,0.00,LWC V2.00 B2112,2013-08-25 00:48:00,
2013-08-24 20:53:00,68.1,63.7,30.20,West,271,0.0,0.0,86,0.00,,,0.00,LWC V2.00 B2112,2013-08-25 00:53:00,
2013-08-24 20:58:00,67.9,63.9,30.21,West,271,0.0,0.0,87,0.00,,,0.00,LWC V2.00 B2112,2013-08-25 00:58:00,
2013-08-24 21:03:00,67.8,63.8,30.21,West,271,0.0,0.0,87,0.00,,,0.00,LWC V2.00 B2112,2013-08-25 01:03:00,
2013-08-24 21:08:00,67.6,63.6,30.21,West,271,0.0,0.0,87,0.00,,,0.00,LWC V2.00 B2112,2013-08-25 01:08:00,
2013-08-24 21:13:00,67.4,63.7,30.21,West,271,0.0,0.0,88,0.00,,,0.00,LWC V2.00 B2112,2013-08-25 01:13:00,
2013-08-24 21:18:00,67.1,63.4,30.21,West,271,0.0,0.0,88,0.00,,,0.00,LWC V2.00 B2112,2013-08-25 01:18:00,
2013-08-24 21:23:00,66.9,63.2,30.21,West,271,0.0,0.0,88,0.00,,,0.00,LWC V2.00 B2112,2013-08-25 01:23:00,
2013-08-24 21:28:00,66.8,63.4,30.22,West,271,0.0,0.0,89,0.00,,,0.00,LWC V2.00 B2112,2013-08-25 01:28:00,
2013-08-24 21:33:00,66.6,63.2,30.22,West,271,0.0,0.0,89,0.00,,,0.00,LWC V2.00 B2112,2013-08-25 01:33:00,
2013-08-24 21:38:00,66.6,63.2,30.22,West,271,0.0,0.0,89,0.00,,,0.00,LWC V2.00 B2112,2013-08-25 01:38:00,
2013-08-24 21:43:00,66.4,63.1,30.22,West,271,0.0,0.0,89,0.00,,,0.00,LWC V2.00 B2112,2013-08-25 01:43:00,
2013-08-24 21:48:00,66.3,63.3,30.22,West,271,0.0,0.0,90,0.00,,,0.00,LWC V2.00 B2112,2013-08-25 01:48:00,
2013-08-24 21:53:00,66.3,63.3,30.22,West,271,0.0,0.0,90,0.00,,,0.00,LWC V2.00 B2112,2013-08-25 01:53:00,
2013-08-24 21:58:00,66.1,63.1,30.22,West,271,0.0,0.0,90,0.00,,,0.00,LWC V2.00 B2112,2013-08-25 01:58:00,
2013-08-24 22:03:00,66.0,63.0,30.22,West,271,0.0,0.0,90,0.00,,,0.00,LWC V2.00 B2112,2013-08-25 02:03:00,
2013-08-24 22:08:00,66.0,63.0,30.22,West,271,0.0,0.0,90,0.00,,,0.00,LWC V2.00 B2112,2013-08-25 02:08:00,
2013-08-24 22:13:00,65.8,62.8,30.23,West,271,0.0,0.0,90,0.00,,,0.00,LWC V2.00 B2112,2013-08-25 02:13:00,
2013-08-24 22:18:00,65.6,62.9,30.23,West,271,0.0,0.0,91,0.00,,,0.00,LWC V2.00 B2112,2013-08-25 02:18:00,
2013-08-24 22:23:00,65.5,62.8,30.23,West,271,0.0,0.0,91,0.00,,,0.00,LWC V2.00 B2112,2013-08-25 02:23:00,
2013-08-24 22:28:00,65.3,62.9,30.24,West,271,0.0,0.0,92,0.00,,,0.00,LWC V2.00 B2112,2013-08-25 02:28:00,
2013-08-24 22:33:00,65.3,62.9,30.24,West,271,0.0,0.0,92,0.00,,,0.00,LWC V2.00 B2112,2013-08-25 02:33:00,
2013-08-24 22:38:00,65.2,62.8,30.24,West,271,0.0,0.0,92,0.00,,,0.00,LWC V2.00 B2112,2013-08-25 02:38:00,
2013-08-24 22:43:00,65.0,62.6,30.24,West,271,0.0,0.0,92,0.00,,,0.00,LWC V2.00 B2112,2013-08-25 02:43:00,
2013-08-24 22:49:00,65.0,62.6,30.24,West,271,0.0,0.0,92,0.00,,,0.00,LWC V2.00 B2112,2013-08-25 02:49:00,
2013-08-24 22:54:00,64.8,62.4,30.24,West,271,0.0,0.0,92,0.00,,,0.00,LWC V2.00 B2112,2013-08-25 02:54:00,
2013-08-24 22:59:00,64.8,62.4,30.24,West,271,0.0,0.0,92,0.00,,,0.00,LWC V2.00 B2112,2013-08-25 02:59:00,
2013-08-24 23:04:00,64.7,62.3,30.24,West,271,0.0,0.0,92,0.00,,,0.00,LWC V2.00 B2112,2013-08-25 03:04:00,
2013-08-24 23:09:00,64.7,62.6,30.24,West,271,0.0,0.0,93,0.00,,,0.00,LWC V2.00 B2112,2013-08-25 03:09:00,
2013-08-24 23:14:00,64.5,62.4,30.25,West,271,0.0,0.0,93,0.00,,,0.00,LWC V2.00 B2112,2013-08-25 03:14:00,
2013-08-24 23:19:00,64.5,62.4,30.25,West,271,0.0,0.0,93,0.00,,,0.00,LWC V2.00 B2112,2013-08-25 03:19:00,
2013-08-24 23:24:00,64.3,62.2,30.25,West,271,0.0,0.0,93,0.00,,,0.00,LWC V2.00 B2112,2013-08-25 03:24:00,
2013-08-24 23:29:00,64.3,62.2,30.25,West,271,0.0,0.0,93,0.00,,,0.00,LWC V2.00 B2112,2013-08-25 03:29:00,
2013-08-24 23:34:00,64.3,62.2,30.25,West,271,0.0,0.0,93,0.00,,,0.00,LWC V2.00 B2112,2013-08-25 03:34:00,
2013-08-24 23:39:00,64.2,62.4,30.25,West,271,0.0,0.0,94,0.00,,,0.00,LWC V2.00 B2112,2013-08-25 03:39:00,
2013-08-24 23:44:00,64.2,62.4,30.26,West,271,0.0,0.0,94,0.00,,,0.00,LWC V2.00 B2112,2013-08-25 03:44:00,
2013-08-24 23:49:00,64.0,62.2,30.26,West,271,0.0,0.0,94,0.00,,,0.00,LWC V2.00 B2112,2013-08-25 03:49:00,
2013-08-24 23:54:00,64.0,62.2,30.26,West,271,0.0,0.0,94,0.00,,,0.00,LWC V2.00 B2112,2013-08-25 03:54:00,
2013-08-24 23:59:00,64.0,62.2,30.26,West,271,0.0,0.0,94,0.00,,,0.00,LWC V2.00 B2112,2013-08-25 03:59:00,